Last 30 Days

Alpine-Summit 8643' (Ward Mt.)

Daily Data | America/Los_Angeles
as of 12/15/19 11:13 AM PST
Date Daily Max Temp (°F) Max Temp Time Daily Min Temp (°F) Min Temp Time Wind Spd (mph) Daily Max Wind (mph) Max RH (%) Min RH (%) Wet Bulb (°F)
12/14/19 27.8 0024 18.9 2345 40.1 102.4 100 97 22.9
12/13/19 32.7 0116 27.4 2358 50.7 120.9 100 100 29.9
12/12/19 34.7 1129 29.6 1733 53.2 97.7 100 100 32.6
12/11/19 32.4 2359 24.9 0115 45.3 66.8 100 99 29.3
12/10/19 35.4 1523 25.6 2355 21.6 63.0 99 81 28.3
12/9/19 32.2 1434 22.5 0540 15.3 44.9 100 96 25.5
12/8/19 32.6 1416 25.5 2317 26.1 75.8 100 99 28.6
12/7/19 32.7 0449 27.3 1843 56.1 124.3 100 100 30.0
12/6/19 35.5 1415 27.9 0504 38.9 101.6 100 83 29.5
12/5/19 33.1 1357 26.3 0638 21.7 53.4 100 89 29.3
12/4/19 33.6 1155 28.5 2359 24.2 58.3 100 99 30.9
12/3/19 34.6 1430 31.7 0749 10.6 27.2 100 99 32.9
12/2/19 33.1 1342 29.7 0000 23.3 64.1 100 100 32.0
12/1/19 31.6 1225 29.4 2307 49.9 106.9 100 99 30.4
11/30/19 30.5 2132 10.2 0249 26.3 73.9 100 92 19.0
11/29/19 17.5 1401 10.8 2315 31.9 61.8 94 92 13.9
11/28/19 19.4 1257 12.0 0724 23.0 53.9 95 92 14.8
11/27/19 17.6 1329 12.9 2055 30.5 75.4 94 92 14.9
11/26/19 20.8 1944 11.8 0330 36.7 101.4 95 30 14.9
11/25/19 33.7 0000 13.8 2359 25.8 72.5 90 40 20.2
11/24/19 50.4 1406 30.8 0017 15.8 34.6 70 9 29.8
11/23/19 38.6 1531 26.4 0649 34.2 60.1 99 66 28.8
11/22/19 34.8 1353 27.9 0705 9.1 39.9 100 80 30.1
11/21/19 33.0 1441 23.8 0519 14.7 59.1 100 97 28.3
11/20/19 27.6 0023 23.4 1940 54.0 83.9 98 97 24.9
11/19/19 41.1 0144 27.0 2352 32.6 62.8 98 44 32.0
11/18/19 60.1 1412 40.3 2358 21.9 42.9 54 16 37.9
11/17/19 62.7 1408 39.5 0200 16.4 34.7 50 19 37.1
11/16/19 52.6 1450 36.8 0002 25.4 37.9 57 21 32.9
11/15/19 50.7 1543 33.8 0427 21.8 50.9 67 33 32.3
Max 62.7 - 40.3 - 56.1 124.3 100 100 37.9
Avg - - - - 29.9 - - - 27.5
Min 17.5 - 10.2 - 9.1 27.2 50 9 13.9